Latest Coastal Weather Observations for Aireys Inlet

IDV60701

Issued at 12:52 pm EST Wednesday 26 July 2017 (issued every 10 minutes, with the page automatically refreshed every 10 minutes)

About coastal observations | Map of coastal stations | Coastal observations for VIC | Marine services | Other Formats
Station Details ID: 090180 Name: AIREYS INLET Lat: -38.46 Lon: 144.09 Height: 105.0 m
Data from the previous 72 hours. | See also: Recent months at Aireys Inlet
Date/Time
EST
Temp
°C
Wind Pressure Rain since
9am
mm
Weather Cloud Vis
km
Sea
Height
m
Swell
Dir  Spd
kts
Gust
kts
hPa Trend Height
m
Period
s
Dir
26/12:36pm 12.3 SW 15 27 - - 0.2 - - - - - - -
26/12:30pm 13.7 SW 11 19 - - 0.2 - - - - - - -
26/12:00pm 12.9 SW 9 14 - - 0.2 Recent precip. - - - - - -
26/11:30am 11.1 SSW 15 24 - - 0.2 - - - - - - -
26/11:03am 11.4 SW 15 28 - - 0.0 - - - - - - -
26/11:00am 11.9 WSW 14 28 - - 0.0 - - - - - - -
26/10:30am 12.4 WSW 12 18 - - 0.0 - - - - - - -
26/10:00am 11.9 WSW 13 20 - - 0.0 - - - - - - -
26/09:30am 11.2 W 10 15 - - 0.0 - - - - - - -
26/09:00am 11.0 W 11 16 - - 0.6 - - - - - - -
26/08:30am 10.3 W 7 10 - - 0.6 - - - - - - -
26/08:00am 10.3 W 9 13 - - 0.6 - - - - - - -
26/07:30am 10.5 W 11 15 - - 0.6 - - - - - - -
26/07:00am 10.5 W 13 19 - - 0.6 - - - - - - -
26/06:30am 10.4 W 11 19 - - 0.6 - - - - - - -
26/06:00am 10.3 W 11 16 - - 0.6 - - - - - - -
26/05:30am 9.9 W 9 14 - - 0.6 - - - - - - -
26/05:00am 9.9 W 8 14 - - 0.6 - - - - - - -
26/04:30am 10.1 WNW 14 20 - - 0.6 - - - - - - -
26/04:00am 10.5 WNW 8 16 - - 0.4 - - - - - - -
26/03:30am 10.2 W 9 16 - - 0.4 - - - - - - -
26/03:00am 10.1 WSW 7 17 - - 0.4 - - - - - - -
26/02:30am 10.2 W 9 20 - - 0.4 - - - - - - -
26/02:00am 10.2 W 14 23 - - 0.4 - - - - - - -
26/01:30am 10.4 WNW 12 25 - - 0.4 - - - - - - -
26/01:00am 10.3 WNW 12 25 - - 0.4 - - - - - - -
26/12:34am 10.6 WNW 15 31 - - 0.4 - - - - - - -
26/12:30am 10.5 WNW 14 28 - - 0.4 - - - - - - -
26/12:00am 10.4 WNW 18 32 - - 0.4 - - - - - - -
 
Date/Time
EST
Temp
°C
Wind Pressure Rain since
9am
mm
Weather Cloud Vis
km
Sea
Height
m
Swell
Dir  Spd
kts
Gust
kts
hPa Trend Height
m
Period
s
Dir
25/11:30pm 10.9 WNW 17 33 - - 0.4 - - - - - - -
25/11:09pm 10.9 WNW 15 29 - - 0.4 - - - - - - -
25/11:00pm 10.8 NW 14 26 - - 0.4 - - - - - - -
25/10:30pm 10.8 NW 11 22 - - 0.4 - - - - - - -
25/10:00pm 10.7 NW 13 26 - - 0.4 - - - - - - -
25/09:30pm 11.1 WNW 19 31 - - 0.4 - - - - - - -
25/09:00pm 11.5 NW 22 36 - - 0.4 - - - - - - -
25/08:31pm 11.8 WNW 16 26 - - 0.4 - - - - - - -
25/08:30pm 11.8 NW 17 26 - - 0.4 - - - - - - -
25/08:00pm 12.3 NW 15 27 - - 0.4 - - - - - - -
25/07:33pm 12.5 WNW 15 25 - - 0.4 - - - - - - -
25/07:30pm 12.5 WNW 15 23 - - 0.4 - - - - - - -
25/07:04pm 12.6 NW 15 30 - - 0.4 - - - - - - -
25/07:00pm 12.6 NW 14 24 - - 0.4 - - - - - - -
25/06:57pm 12.6 NW 15 24 - - 0.4 - - - - - - -
25/06:30pm 12.3 NW 7 14 - - 0.4 - - - - - - -
25/06:00pm 12.5 NW 4 11 - - 0.4 - - - - - - -
25/05:30pm 12.9 WNW 7 13 - - 0.4 - - - - - - -
25/05:00pm 13.1 WNW 10 20 - - 0.4 - - - - - - -
25/04:30pm 13.1 WNW 16 28 - - 0.4 - - - - - - -
25/04:00pm 12.6 NW 16 27 - - 0.4 - - - - - - -
25/03:59pm 12.5 WNW 15 26 - - 0.4 - - - - - - -
25/03:35pm 14.5 WNW 19 34 - - 0.2 - - - - - - -
25/03:30pm 16.1 NW 18 30 - - 0.0 - - - - - - -
25/03:00pm 16.5 NW 16 28 - - 0.0 - - - - - - -
25/02:30pm 16.8 WNW 15 30 - - 0.0 - - - - - - -
25/02:03pm 16.4 WNW 15 27 - - 0.0 - - - - - - -
25/02:00pm 16.5 WNW 13 23 - - 0.0 - - - - - - -
25/01:48pm 16.4 NW 16 28 - - 0.0 - - - - - - -
25/01:30pm 16.7 NW 14 21 - - 0.0 - - - - - - -
25/01:00pm 16.1 WNW 9 23 - - 0.0 - - - - - - -
25/12:30pm 16.4 WNW 10 21 - - 0.0 - - - - - - -
25/12:00pm 15.8 WNW 7 16 - - 0.0 - - - - - - -
25/11:30am 15.8 NW 4 11 - - 0.0 - - - - - - -
25/11:00am 14.5 E 7 11 - - 0.0 - - - - - - -
25/10:30am 13.0 ENE 4 8 - - 0.0 - - - - - - -
25/10:00am 12.0 ENE 6 9 - - 0.0 - - - - - - -
25/09:30am 10.9 ENE 7 11 - - 0.0 - - - - - - -
25/09:00am 9.8 NE 7 11 - - 0.2 - - - - - - -
25/08:30am 9.2 NE 6 10 - - 0.2 - - - - - - -
25/08:00am 8.4 NE 7 9 - - 0.2 - - - - - - -
25/07:30am 8.1 NE 6 8 - - 0.2 - - - - - - -
25/07:00am 7.9 NNE 6 8 - - 0.2 - - - - - - -
25/06:30am 8.4 NNE 6 9 - - 0.2 - - - - - - -
25/06:00am 8.8 NNE 8 12 - - 0.2 - - - - - - -
25/05:30am 9.3 NNE 10 13 - - 0.2 - - - - - - -
25/05:00am 9.5 N 12 17 - - 0.2 - - - - - - -
25/04:30am 9.4 NNW 15 21 - - 0.2 - - - - - - -
25/04:00am 9.6 NNW 15 21 - - 0.2 - - - - - - -
25/03:30am 10.2 NW 18 26 - - 0.2 - - - - - - -
25/03:00am 10.6 NW 19 27 - - 0.2 - - - - - - -
25/02:30am 10.5 NNW 17 27 - - 0.2 - - - - - - -
25/02:08am 10.5 NW 15 26 - - 0.2 - - - - - - -
25/02:00am 10.3 NW 13 19 - - 0.2 - - - - - - -
25/01:30am 10.3 NW 15 22 - - 0.2 - - - - - - -
25/01:00am 10.4 NW 18 24 - - 0.2 - - - - - - -
25/12:30am 10.2 NW 11 20 - - 0.0 - - - - - - -
25/12:00am 9.6 NW 2 5 - - 0.0 - - - - - - -
 
Date/Time
EST
Temp
°C
Wind Pressure Rain since
9am
mm
Weather Cloud Vis
km
Sea
Height
m
Swell
Dir  Spd
kts
Gust
kts
hPa Trend Height
m
Period
s
Dir
24/11:30pm 9.7 NW 3 6 - - 0.0 - - - - - - -
24/11:00pm 9.8 NNW 5 9 - - 0.0 - - - - - - -
24/10:30pm 9.9 NW 11 17 - - 0.0 - - - - - - -
24/10:00pm 9.9 NW 9 13 - - 0.0 - - - - - - -
24/09:30pm 10.0 NW 9 12 - - 0.0 - - - - - - -
24/09:00pm 10.1 N 2 5 - - 0.0 - - - - - - -
24/08:30pm 10.4 NW 3 5 - - 0.0 - - - - - - -
24/08:00pm 10.9 NW 4 7 - - 0.0 - - - - - - -
24/07:30pm 10.9 WNW 2 4 - - 0.0 - - - - - - -
24/07:00pm 10.4 NW 3 4 - - 0.0 - - - - - - -
24/06:30pm 10.6 NW 3 4 - - 0.0 - - - - - - -
24/06:00pm 11.4 WNW 5 7 - - 0.0 - - - - - - -
24/05:30pm 11.7 NW 4 7 - - 0.0 - - - - - - -
24/05:00pm 12.7 NW 7 10 - - 0.0 - - - - - - -
24/04:30pm 12.8 WNW 7 12 - - 0.0 - - - - - - -
24/04:00pm 12.6 NW 8 14 - - 0.0 - - - - - - -
24/03:30pm 12.6 NW 7 11 - - 0.0 - - - - - - -
24/03:00pm 13.0 NW 11 19 - - 0.0 - - - - - - -
24/02:30pm 13.3 WNW 11 17 - - 0.0 - - - - - - -
24/02:00pm 11.4 NW 8 12 - - 0.0 - - - - - - -
24/01:30pm 12.1 W 6 11 - - 0.0 - - - - - - -
24/01:00pm 12.5 WNW 8 15 - - 0.0 - - - - - - -
24/12:30pm 12.8 WNW 8 16 - - 0.0 - - - - - - -
24/12:00pm 11.4 NW 8 16 - - 0.0 - - - - - - -
24/11:30am 10.8 NW 7 11 - - 0.0 - - - - - - -
24/11:00am 10.4 NW 11 18 - - 0.0 - - - - - - -
24/10:30am 9.8 NW 10 14 - - 0.0 - - - - - - -
24/10:00am 9.0 NW 10 14 - - 0.0 - - - - - - -
24/09:30am 8.9 NW 13 18 - - 0.0 - - - - - - -
24/09:00am 8.6 NW 7 13 - - 0.2 - - - - - - -
24/08:30am 8.1 NW 8 13 - - 0.2 - - - - - - -
24/08:00am 7.8 NW 9 15 - - 0.2 - - - - - - -
24/07:30am 7.5 WNW 8 11 - - 0.2 - - - - - - -
24/07:00am 7.5 NW 3 7 - - 0.2 - - - - - - -
24/06:30am 7.9 WNW 5 8 - - 0.2 - - - - - - -
24/06:00am 8.0 WNW 4 6 - - 0.2 - - - - - - -
24/05:30am 8.2 NW 6 9 - - 0.2 - - - - - - -
24/05:00am 8.4 NW 8 12 - - 0.2 - - - - - - -
24/04:30am 8.0 NW 8 10 - - 0.2 - - - - - - -
24/04:00am 8.1 WNW 6 8 - - 0.2 - - - - - - -
24/03:30am 8.3 NW 7 9 - - 0.2 - - - - - - -
24/03:00am 8.4 WNW 6 7 - - 0.2 - - - - - - -
24/02:30am 8.4 NW 7 8 - - 0.2 - - - - - - -
24/02:00am 8.2 NW 7 9 - - 0.2 - - - - - - -
24/01:30am 8.4 W 6 9 - - 0.2 - - - - - - -
24/01:00am 8.4 NW 6 7 - - 0.0 - - - - - - -
24/12:30am 8.5 NW 7 10 - - 0.0 - - - - - - -
24/12:00am 8.6 NW 7 9 - - 0.0 - - - - - - -
 
Date/Time
EST
Temp
°C
Wind Pressure Rain since
9am
mm
Weather Cloud Vis
km
Sea
Height
m
Swell
Dir  Spd
kts
Gust
kts
hPa Trend Height
m
Period
s
Dir
23/11:30pm 9.0 NW 5 7 - - 0.0 - - - - - - -
23/11:00pm 9.0 WNW 7 8 - - 0.0 - - - - - - -
23/10:30pm 9.0 WNW 6 8 - - 0.0 - - - - - - -
23/10:00pm 9.3 WNW 9 11 - - 0.0 - - - - - - -
23/09:30pm 9.2 NW 8 10 - - 0.0 - - - - - - -
23/09:00pm 9.4 WNW 7 9 - - 0.0 - - - - - - -
23/08:30pm 9.4 WNW 7 9 - - 0.0 - - - - - - -
23/08:00pm 9.5 NW 6 7 - - 0.0 - - - - - - -
23/07:30pm 9.7 WNW 8 10 - - 0.0 - - - - - - -
23/07:00pm 9.8 WNW 8 10 - - 0.0 - - - - - - -
23/06:30pm 9.9 NW 6 9 - - 0.0 - - - - - - -
23/06:00pm 10.3 WNW 7 10 - - 0.0 - - - - - - -
23/05:30pm 10.5 W 7 10 - - 0.0 - - - - - - -
23/05:00pm 11.4 W 8 14 - - 0.0 - - - - - - -
23/04:30pm 12.3 W 10 14 - - 0.0 - - - - - - -
23/04:00pm 12.3 W 12 19 - - 0.0 - - - - - - -
23/03:30pm 12.5 W 10 17 - - 0.0 - - - - - - -
23/03:00pm 12.7 W 11 16 - - 0.0 - - - - - - -
23/02:30pm 12.2 WSW 16 21 - - 0.0 - - - - - - -
23/02:22pm 11.8 WSW 10 21 - - 0.0 - - - - - - -
23/02:00pm 12.3 W 4 6 - - 0.0 - - - - - - -
23/01:30pm 12.4 W 8 16 - - 0.0 - - - - - - -
23/01:00pm 12.5 WNW 10 17 - - 0.0 - - - - - - -

Other Formats:

Comma delimited format used in spreadsheet applications
http://www.bom.gov.au/fwo/IDV60701/IDV60701.94846.axf

JavaScript Object Notation format (JSON) in row-major order
http://www.bom.gov.au/fwo/IDV60701/IDV60701.94846.json